sensor_id;sensor_type;location;lat;lon;timestamp;pressure;altitude;pressure_sealevel;temperature
82636;BMP280;72317;37.280;-121.948;2024-02-26T00:02:43;99960.13;;;20.36
82636;BMP280;72317;37.280;-121.948;2024-02-26T00:07:44;99845.41;;;20.19
82636;BMP280;72317;37.280;-121.948;2024-02-26T00:12:44;99762.59;;;20.20
82636;BMP280;72317;37.280;-121.948;2024-02-26T00:17:45;99761.63;;;20.05
82636;BMP280;72317;37.280;-121.948;2024-02-26T00:22:46;99731.56;;;20.08
82636;BMP280;72317;37.280;-121.948;2024-02-26T00:27:47;99691.53;;;20.00
82636;BMP280;72317;37.280;-121.948;2024-02-26T00:32:47;99583.72;;;19.97
82636;BMP280;72317;37.280;-121.948;2024-02-26T00:37:48;99568.16;;;19.88
82636;BMP280;72317;37.280;-121.948;2024-02-26T00:42:49;99539.75;;;19.89
82636;BMP280;72317;37.280;-121.948;2024-02-26T00:47:50;99376.38;;;19.87
82636;BMP280;72317;37.280;-121.948;2024-02-26T00:52:50;99188.28;;;19.50
82636;BMP280;72317;37.280;-121.948;2024-02-26T00:57:51;98922.00;;;19.20
82636;BMP280;72317;37.280;-121.948;2024-02-26T01:02:52;98820.88;;;19.11
82636;BMP280;72317;37.280;-121.948;2024-02-26T01:07:53;98740.22;;;18.82
82636;BMP280;72317;37.280;-121.948;2024-02-26T01:12:53;98661.63;;;18.73
82636;BMP280;72317;37.280;-121.948;2024-02-26T01:17:54;98644.31;;;18.41
82636;BMP280;72317;37.280;-121.948;2024-02-26T01:22:55;98781.72;;;18.35
82636;BMP280;72317;37.280;-121.948;2024-02-26T01:27:56;98678.94;;;18.22
82636;BMP280;72317;37.280;-121.948;2024-02-26T01:32:57;98859.84;;;18.03
82636;BMP280;72317;37.280;-121.948;2024-02-26T01:37:57;98745.06;;;17.91
82636;BMP280;72317;37.280;-121.948;2024-02-26T01:42:59;98592.59;;;17.67
82636;BMP280;72317;37.280;-121.948;2024-02-26T01:48:00;98342.09;;;17.57
82636;BMP280;72317;37.280;-121.948;2024-02-26T01:53:01;98037.97;;;17.25
82636;BMP280;72317;37.280;-121.948;2024-02-26T01:58:02;97764.63;;;17.14
82636;BMP280;72317;37.280;-121.948;2024-02-26T02:03:04;97741.72;;;16.89
82636;BMP280;72317;37.280;-121.948;2024-02-26T02:08:05;97768.56;;;16.92
82636;BMP280;72317;37.280;-121.948;2024-02-26T02:13:06;97716.03;;;16.53
82636;BMP280;72317;37.280;-121.948;2024-02-26T02:18:07;97692.91;;;16.31
82636;BMP280;72317;37.280;-121.948;2024-02-26T02:23:08;97681.94;;;16.35
82636;BMP280;72317;37.280;-121.948;2024-02-26T02:28:09;97640.06;;;16.45
82636;BMP280;72317;37.280;-121.948;2024-02-26T02:33:10;97588.63;;;16.14
82636;BMP280;72317;37.280;-121.948;2024-02-26T02:38:11;97526.94;;;16.06
82636;BMP280;72317;37.280;-121.948;2024-02-26T02:43:12;97529.91;;;16.09
82636;BMP280;72317;37.280;-121.948;2024-02-26T02:48:13;97532.53;;;16.03
82636;BMP280;72317;37.280;-121.948;2024-02-26T02:53:13;97518.34;;;16.08
82636;BMP280;72317;37.280;-121.948;2024-02-26T02:58:15;97471.00;;;15.87
82636;BMP280;72317;37.280;-121.948;2024-02-26T03:03:15;97515.50;;;15.71
82636;BMP280;72317;37.280;-121.948;2024-02-26T03:08:16;97731.63;;;15.73
82636;BMP280;72317;37.280;-121.948;2024-02-26T03:13:17;97904.16;;;15.62
82636;BMP280;72317;37.280;-121.948;2024-02-26T03:18:18;98049.34;;;15.25
82636;BMP280;72317;37.280;-121.948;2024-02-26T03:23:19;98139.22;;;15.22
82636;BMP280;72317;37.280;-121.948;2024-02-26T03:28:19;98042.97;;;15.04
82636;BMP280;72317;37.280;-121.948;2024-02-26T03:33:20;97931.06;;;14.75
82636;BMP280;72317;37.280;-121.948;2024-02-26T03:38:21;97812.34;;;14.79
82636;BMP280;72317;37.280;-121.948;2024-02-26T03:43:22;97823.03;;;14.64
82636;BMP280;72317;37.280;-121.948;2024-02-26T03:48:22;97818.59;;;14.52
82636;BMP280;72317;37.280;-121.948;2024-02-26T03:53:23;97906.91;;;14.57
82636;BMP280;72317;37.280;-121.948;2024-02-26T03:58:24;97912.50;;;14.44
82636;BMP280;72317;37.280;-121.948;2024-02-26T04:03:25;97843.75;;;14.16
82636;BMP280;72317;37.280;-121.948;2024-02-26T04:08:25;97853.72;;;14.34
82636;BMP280;72317;37.280;-121.948;2024-02-26T04:13:26;97823.53;;;14.30
82636;BMP280;72317;37.280;-121.948;2024-02-26T04:18:28;97785.69;;;14.24
82636;BMP280;72317;37.280;-121.948;2024-02-26T04:23:29;97758.34;;;14.16
82636;BMP280;72317;37.280;-121.948;2024-02-26T04:28:30;97732.00;;;13.87
82636;BMP280;72317;37.280;-121.948;2024-02-26T04:33:34;97745.47;;;13.87
82636;BMP280;72317;37.280;-121.948;2024-02-26T04:38:34;97753.53;;;13.87
82636;BMP280;72317;37.280;-121.948;2024-02-26T04:43:36;97773.75;;;13.83
82636;BMP280;72317;37.280;-121.948;2024-02-26T04:48:37;97784.16;;;13.90
82636;BMP280;72317;37.280;-121.948;2024-02-26T04:53:37;97895.84;;;13.58
82636;BMP280;72317;37.280;-121.948;2024-02-26T04:58:38;97976.56;;;13.58
82636;BMP280;72317;37.280;-121.948;2024-02-26T05:03:39;98083.56;;;13.63
82636;BMP280;72317;37.280;-121.948;2024-02-26T05:08:40;98219.75;;;13.39
82636;BMP280;72317;37.280;-121.948;2024-02-26T05:13:41;98372.16;;;13.42
82636;BMP280;72317;37.280;-121.948;2024-02-26T05:18:41;98467.88;;;13.39
82636;BMP280;72317;37.280;-121.948;2024-02-26T05:23:42;98278.22;;;12.78
82636;BMP280;72317;37.280;-121.948;2024-02-26T05:28:43;97815.22;;;12.63
82636;BMP280;72317;37.280;-121.948;2024-02-26T05:33:44;97763.25;;;12.66
82636;BMP280;72317;37.280;-121.948;2024-02-26T05:38:44;97806.34;;;12.44
82636;BMP280;72317;37.280;-121.948;2024-02-26T05:43:45;97946.00;;;12.31
82636;BMP280;72317;37.280;-121.948;2024-02-26T05:48:51;98074.91;;;12.53
82636;BMP280;72317;37.280;-121.948;2024-02-26T05:53:52;98441.69;;;12.25
82636;BMP280;72317;37.280;-121.948;2024-02-26T05:58:53;98493.97;;;12.50
82636;BMP280;72317;37.280;-121.948;2024-02-26T06:03:54;98616.97;;;12.55
82636;BMP280;72317;37.280;-121.948;2024-02-26T06:08:54;98740.28;;;12.65
82636;BMP280;72317;37.280;-121.948;2024-02-26T06:13:55;98856.91;;;12.68
82636;BMP280;72317;37.280;-121.948;2024-02-26T06:18:56;98936.28;;;12.89
82636;BMP280;72317;37.280;-121.948;2024-02-26T06:23:57;99170.44;;;13.14
82636;BMP280;72317;37.280;-121.948;2024-02-26T06:28:57;99237.63;;;12.94
82636;BMP280;72317;37.280;-121.948;2024-02-26T06:33:58;99263.38;;;12.72
82636;BMP280;72317;37.280;-121.948;2024-02-26T06:38:59;99371.59;;;12.73
82636;BMP280;72317;37.280;-121.948;2024-02-26T06:43:59;99427.06;;;12.86
82636;BMP280;72317;37.280;-121.948;2024-02-26T06:49:00;99519.94;;;12.60
82636;BMP280;72317;37.280;-121.948;2024-02-26T06:54:01;99430.81;;;12.35
82636;BMP280;72317;37.280;-121.948;2024-02-26T06:59:02;99325.69;;;12.33
82636;BMP280;72317;37.280;-121.948;2024-02-26T07:04:03;99484.28;;;12.56
82636;BMP280;72317;37.280;-121.948;2024-02-26T07:09:03;99516.91;;;12.58
82636;BMP280;72317;37.280;-121.948;2024-02-26T07:14:04;99491.59;;;12.86
82636;BMP280;72317;37.280;-121.948;2024-02-26T07:19:05;99472.03;;;12.86
82636;BMP280;72317;37.280;-121.948;2024-02-26T07:24:06;99453.25;;;12.82
82636;BMP280;72317;37.280;-121.948;2024-02-26T07:29:06;99427.31;;;12.72
82636;BMP280;72317;37.280;-121.948;2024-02-26T07:34:07;99415.22;;;12.84
82636;BMP280;72317;37.280;-121.948;2024-02-26T07:39:08;99406.31;;;12.60
82636;BMP280;72317;37.280;-121.948;2024-02-26T07:44:09;99286.03;;;12.71
82636;BMP280;72317;37.280;-121.948;2024-02-26T07:49:09;99150.19;;;12.66
82636;BMP280;72317;37.280;-121.948;2024-02-26T07:54:10;99074.78;;;12.77
82636;BMP280;72317;37.280;-121.948;2024-02-26T07:59:11;99064.03;;;12.77
82636;BMP280;72317;37.280;-121.948;2024-02-26T08:04:12;99005.22;;;12.59
82636;BMP280;72317;37.280;-121.948;2024-02-26T08:09:12;98795.38;;;12.57
82636;BMP280;72317;37.280;-121.948;2024-02-26T08:14:13;98697.41;;;12.62
82636;BMP280;72317;37.280;-121.948;2024-02-26T08:19:14;98638.09;;;12.69
82636;BMP280;72317;37.280;-121.948;2024-02-26T08:24:15;98474.44;;;12.62
82636;BMP280;72317;37.280;-121.948;2024-02-26T08:29:15;98311.13;;;12.57
82636;BMP280;72317;37.280;-121.948;2024-02-26T08:34:16;98132.63;;;12.36
82636;BMP280;72317;37.280;-121.948;2024-02-26T08:39:17;97934.09;;;12.32
82636;BMP280;72317;37.280;-121.948;2024-02-26T08:44:18;97909.81;;;12.14
82636;BMP280;72317;37.280;-121.948;2024-02-26T08:49:19;97922.19;;;12.12
82636;BMP280;72317;37.280;-121.948;2024-02-26T08:54:20;98010.66;;;12.02
82636;BMP280;72317;37.280;-121.948;2024-02-26T08:59:20;97930.88;;;11.81
82636;BMP280;72317;37.280;-121.948;2024-02-26T09:04:21;97876.84;;;11.92
82636;BMP280;72317;37.280;-121.948;2024-02-26T09:09:22;97875.06;;;11.89
82636;BMP280;72317;37.280;-121.948;2024-02-26T09:14:23;97870.78;;;11.57
82636;BMP280;72317;37.280;-121.948;2024-02-26T09:19:25;97886.97;;;11.53
82636;BMP280;72317;37.280;-121.948;2024-02-26T09:24:26;98122.03;;;11.43
82636;BMP280;72317;37.280;-121.948;2024-02-26T09:29:27;98308.13;;;11.46
82636;BMP280;72317;37.280;-121.948;2024-02-26T09:34:28;98316.25;;;11.42
82636;BMP280;72317;37.280;-121.948;2024-02-26T09:39:29;98457.34;;;11.69
82636;BMP280;72317;37.280;-121.948;2024-02-26T09:44:30;98555.47;;;11.66
82636;BMP280;72317;37.280;-121.948;2024-02-26T09:49:31;98581.53;;;11.66
82636;BMP280;72317;37.280;-121.948;2024-02-26T09:54:32;98511.75;;;11.17
82636;BMP280;72317;37.280;-121.948;2024-02-26T09:59:39;98380.84;;;11.32
82636;BMP280;72317;37.280;-121.948;2024-02-26T10:04:41;98293.81;;;11.20
82636;BMP280;72317;37.280;-121.948;2024-02-26T10:09:42;98204.41;;;11.14
82636;BMP280;72317;37.280;-121.948;2024-02-26T10:14:42;98173.31;;;11.16
82636;BMP280;72317;37.280;-121.948;2024-02-26T10:19:44;98128.16;;;10.73
82636;BMP280;72317;37.280;-121.948;2024-02-26T10:24:47;97987.94;;;10.67
82636;BMP280;72317;37.280;-121.948;2024-02-26T10:29:48;97962.69;;;10.81
82636;BMP280;72317;37.280;-121.948;2024-02-26T10:34:49;98053.09;;;10.77
82636;BMP280;72317;37.280;-121.948;2024-02-26T10:39:56;98070.06;;;10.86
82636;BMP280;72317;37.280;-121.948;2024-02-26T10:44:58;98046.50;;;10.94
82636;BMP280;72317;37.280;-121.948;2024-02-26T10:49:59;98017.44;;;10.92
82636;BMP280;72317;37.280;-121.948;2024-02-26T10:55:05;97988.47;;;10.75
82636;BMP280;72317;37.280;-121.948;2024-02-26T11:00:06;97943.84;;;10.84
82636;BMP280;72317;37.280;-121.948;2024-02-26T11:05:08;97936.91;;;11.00
82636;BMP280;72317;37.280;-121.948;2024-02-26T11:10:09;97915.47;;;11.00
82636;BMP280;72317;37.280;-121.948;2024-02-26T11:15:12;97891.00;;;10.98
82636;BMP280;72317;37.280;-121.948;2024-02-26T11:20:14;97883.22;;;11.03
82636;BMP280;72317;37.280;-121.948;2024-02-26T11:25:15;97887.94;;;10.86
82636;BMP280;72317;37.280;-121.948;2024-02-26T11:30:16;97883.75;;;10.85
82636;BMP280;72317;37.280;-121.948;2024-02-26T11:35:18;97894.56;;;10.82
82636;BMP280;72317;37.280;-121.948;2024-02-26T11:40:19;97901.31;;;10.99
82636;BMP280;72317;37.280;-121.948;2024-02-26T11:50:42;98049.47;;;10.83
82636;BMP280;72317;37.280;-121.948;2024-02-26T11:55:43;98018.75;;;10.88
82636;BMP280;72317;37.280;-121.948;2024-02-26T12:00:43;97924.06;;;10.95
82636;BMP280;72317;37.280;-121.948;2024-02-26T12:05:44;98003.44;;;10.59
82636;BMP280;72317;37.280;-121.948;2024-02-26T12:10:45;98108.53;;;10.63
82636;BMP280;72317;37.280;-121.948;2024-02-26T12:15:55;98032.16;;;11.01
82636;BMP280;72317;37.280;-121.948;2024-02-26T12:21:00;98154.19;;;10.40
82636;BMP280;72317;37.280;-121.948;2024-02-26T12:26:01;98388.50;;;10.45
82636;BMP280;72317;37.280;-121.948;2024-02-26T12:31:02;98689.09;;;10.69
82636;BMP280;72317;37.280;-121.948;2024-02-26T12:36:03;98797.97;;;10.79
82636;BMP280;72317;37.280;-121.948;2024-02-26T12:41:04;98699.31;;;10.97
82636;BMP280;72317;37.280;-121.948;2024-02-26T12:46:05;98754.53;;;10.91
82636;BMP280;72317;37.280;-121.948;2024-02-26T12:51:07;98785.41;;;10.76
82636;BMP280;72317;37.280;-121.948;2024-02-26T12:56:09;98889.88;;;10.76
82636;BMP280;72317;37.280;-121.948;2024-02-26T13:01:15;98936.81;;;10.53
82636;BMP280;72317;37.280;-121.948;2024-02-26T13:06:17;98791.28;;;10.67
82636;BMP280;72317;37.280;-121.948;2024-02-26T13:11:18;98524.22;;;10.68
82636;BMP280;72317;37.280;-121.948;2024-02-26T13:16:19;98587.13;;;10.36
82636;BMP280;72317;37.280;-121.948;2024-02-26T13:21:20;98906.69;;;10.12
82636;BMP280;72317;37.280;-121.948;2024-02-26T13:26:22;99127.56;;;10.20
82636;BMP280;72317;37.280;-121.948;2024-02-26T13:31:23;99215.88;;;10.23
82636;BMP280;72317;37.280;-121.948;2024-02-26T13:36:24;99365.03;;;10.16
82636;BMP280;72317;37.280;-121.948;2024-02-26T13:41:25;99416.25;;;10.25
82636;BMP280;72317;37.280;-121.948;2024-02-26T13:46:26;99387.19;;;10.23
82636;BMP280;72317;37.280;-121.948;2024-02-26T13:51:27;99322.94;;;10.30
82636;BMP280;72317;37.280;-121.948;2024-02-26T13:56:27;99246.06;;;10.27
82636;BMP280;72317;37.280;-121.948;2024-02-26T14:01:28;99170.69;;;10.36
82636;BMP280;72317;37.280;-121.948;2024-02-26T14:06:29;99180.97;;;10.41
82636;BMP280;72317;37.280;-121.948;2024-02-26T14:11:30;99254.50;;;10.29
82636;BMP280;72317;37.280;-121.948;2024-02-26T14:16:31;99161.50;;;10.33
82636;BMP280;72317;37.280;-121.948;2024-02-26T14:21:31;99167.59;;;10.38
82636;BMP280;72317;37.280;-121.948;2024-02-26T14:26:32;99078.19;;;10.24
82636;BMP280;72317;37.280;-121.948;2024-02-26T14:31:33;99248.84;;;10.10
82636;BMP280;72317;37.280;-121.948;2024-02-26T14:36:34;99382.25;;;10.08
82636;BMP280;72317;37.280;-121.948;2024-02-26T14:41:34;99467.50;;;10.16
82636;BMP280;72317;37.280;-121.948;2024-02-26T14:46:36;99509.56;;;10.30
82636;BMP280;72317;37.280;-121.948;2024-02-26T14:51:37;99434.56;;;10.33
82636;BMP280;72317;37.280;-121.948;2024-02-26T14:56:38;99279.38;;;10.82
82636;BMP280;72317;37.280;-121.948;2024-02-26T15:01:39;99084.72;;;10.68
82636;BMP280;72317;37.280;-121.948;2024-02-26T15:06:39;98999.88;;;11.23
82636;BMP280;72317;37.280;-121.948;2024-02-26T15:11:40;98489.16;;;11.67
82636;BMP280;72317;37.280;-121.948;2024-02-26T15:16:41;97599.91;;;12.28
82636;BMP280;72317;37.280;-121.948;2024-02-26T15:21:45;97556.97;;;12.37
82636;BMP280;72317;37.280;-121.948;2024-02-26T15:26:46;97391.00;;;13.11
82636;BMP280;72317;37.280;-121.948;2024-02-26T15:31:47;97409.59;;;12.57
82636;BMP280;72317;37.280;-121.948;2024-02-26T15:36:48;97685.47;;;12.26
82636;BMP280;72317;37.280;-121.948;2024-02-26T15:41:48;97936.44;;;11.87
82636;BMP280;72317;37.280;-121.948;2024-02-26T15:46:49;98137.09;;;11.92
82636;BMP280;72317;37.280;-121.948;2024-02-26T15:51:50;98053.03;;;12.07
82636;BMP280;72317;37.280;-121.948;2024-02-26T15:56:51;98071.59;;;12.15
82636;BMP280;72317;37.280;-121.948;2024-02-26T16:01:52;97792.81;;;12.66
82636;BMP280;72317;37.280;-121.948;2024-02-26T16:06:56;97802.38;;;12.58
82636;BMP280;72317;37.280;-121.948;2024-02-26T16:12:02;97691.41;;;12.79
82636;BMP280;72317;37.280;-121.948;2024-02-26T16:17:32;97693.31;;;12.88
82636;BMP280;72317;37.280;-121.948;2024-02-26T16:22:34;97558.91;;;13.24
82636;BMP280;72317;37.280;-121.948;2024-02-26T16:27:35;97430.09;;;13.59
82636;BMP280;72317;37.280;-121.948;2024-02-26T16:32:37;97381.53;;;13.78
82636;BMP280;72317;37.280;-121.948;2024-02-26T16:37:38;97301.66;;;14.13
82636;BMP280;72317;37.280;-121.948;2024-02-26T16:42:39;97303.63;;;14.13
82636;BMP280;72317;37.280;-121.948;2024-02-26T16:47:40;97307.50;;;14.27
82636;BMP280;72317;37.280;-121.948;2024-02-26T16:52:40;97328.84;;;14.15
82636;BMP280;72317;37.280;-121.948;2024-02-26T16:57:41;97371.72;;;13.89
82636;BMP280;72317;37.280;-121.948;2024-02-26T17:02:43;97304.91;;;14.52
82636;BMP280;72317;37.280;-121.948;2024-02-26T17:07:43;97332.97;;;15.01
82636;BMP280;72317;37.280;-121.948;2024-02-26T17:12:44;97354.81;;;14.48
82636;BMP280;72317;37.280;-121.948;2024-02-26T17:17:45;97316.88;;;14.66
82636;BMP280;72317;37.280;-121.948;2024-02-26T17:22:46;97318.06;;;14.30
82636;BMP280;72317;37.280;-121.948;2024-02-26T17:27:47;97290.31;;;14.59
82636;BMP280;72317;37.280;-121.948;2024-02-26T17:32:47;97258.00;;;14.79
82636;BMP280;72317;37.280;-121.948;2024-02-26T17:37:49;97330.41;;;15.12
82636;BMP280;72317;37.280;-121.948;2024-02-26T17:42:49;97279.19;;;15.38
82636;BMP280;72317;37.280;-121.948;2024-02-26T17:47:50;97372.88;;;15.38
82636;BMP280;72317;37.280;-121.948;2024-02-26T17:52:51;97481.75;;;15.61
82636;BMP280;72317;37.280;-121.948;2024-02-26T17:57:52;97469.50;;;16.06
82636;BMP280;72317;37.280;-121.948;2024-02-26T18:02:52;97659.38;;;15.97
82636;BMP280;72317;37.280;-121.948;2024-02-26T18:07:53;97889.50;;;16.72
82636;BMP280;72317;37.280;-121.948;2024-02-26T18:12:54;98088.88;;;16.91
82636;BMP280;72317;37.280;-121.948;2024-02-26T18:17:55;98306.88;;;17.27
82636;BMP280;72317;37.280;-121.948;2024-02-26T18:22:55;98707.63;;;18.52
82636;BMP280;72317;37.280;-121.948;2024-02-26T18:27:56;98803.47;;;17.92
82636;BMP280;72317;37.280;-121.948;2024-02-26T18:32:57;98872.81;;;19.57
82636;BMP280;72317;37.280;-121.948;2024-02-26T18:37:58;99919.03;;;24.28
82636;BMP280;72317;37.280;-121.948;2024-02-26T18:42:59;100809.94;;;26.48
82636;BMP280;72317;37.280;-121.948;2024-02-26T18:47:59;100634.75;;;21.79
82636;BMP280;72317;37.280;-121.948;2024-02-26T18:53:00;99966.84;;;19.04
82636;BMP280;72317;37.280;-121.948;2024-02-26T18:58:01;99771.81;;;18.46
82636;BMP280;72317;37.280;-121.948;2024-02-26T19:03:02;99525.88;;;18.43
82636;BMP280;72317;37.280;-121.948;2024-02-26T19:08:03;99494.13;;;18.21
82636;BMP280;72317;37.280;-121.948;2024-02-26T19:13:04;99465.50;;;17.98
82636;BMP280;72317;37.280;-121.948;2024-02-26T19:18:04;99366.16;;;18.05
82636;BMP280;72317;37.280;-121.948;2024-02-26T19:23:05;99476.63;;;18.22
82636;BMP280;72317;37.280;-121.948;2024-02-26T19:28:06;99623.72;;;19.87
82636;BMP280;72317;37.280;-121.948;2024-02-26T19:33:07;100403.66;;;21.79
82636;BMP280;72317;37.280;-121.948;2024-02-26T19:38:08;100399.09;;;22.16
82636;BMP280;72317;37.280;-121.948;2024-02-26T19:43:08;100906.50;;;27.50
82636;BMP280;72317;37.280;-121.948;2024-02-26T19:48:09;101010.66;;;29.36
82636;BMP280;72317;37.280;-121.948;2024-02-26T19:53:10;100995.16;;;28.55
82636;BMP280;72317;37.280;-121.948;2024-02-26T19:58:11;100855.84;;;24.81
82636;BMP280;72317;37.280;-121.948;2024-02-26T20:03:12;100930.53;;;27.49
82636;BMP280;72317;37.280;-121.948;2024-02-26T20:08:13;100887.81;;;25.35
82636;BMP280;72317;37.280;-121.948;2024-02-26T20:13:13;100850.69;;;23.43
82636;BMP280;72317;37.280;-121.948;2024-02-26T20:18:14;100771.69;;;23.36
82636;BMP280;72317;37.280;-121.948;2024-02-26T20:23:15;100731.94;;;23.71
82636;BMP280;72317;37.280;-121.948;2024-02-26T20:28:16;100696.38;;;23.44
82636;BMP280;72317;37.280;-121.948;2024-02-26T20:33:16;100494.22;;;21.96
82636;BMP280;72317;37.280;-121.948;2024-02-26T20:38:17;100086.97;;;21.22
82636;BMP280;72317;37.280;-121.948;2024-02-26T20:43:18;99522.66;;;20.07
82636;BMP280;72317;37.280;-121.948;2024-02-26T20:48:19;98823.44;;;19.44
82636;BMP280;72317;37.280;-121.948;2024-02-26T20:53:19;98442.50;;;18.62
82636;BMP280;72317;37.280;-121.948;2024-02-26T20:58:20;97994.78;;;18.54
82636;BMP280;72317;37.280;-121.948;2024-02-26T21:03:21;97388.53;;;17.51
82636;BMP280;72317;37.280;-121.948;2024-02-26T21:08:22;97064.06;;;17.47
82636;BMP280;72317;37.280;-121.948;2024-02-26T21:13:23;96959.25;;;17.59
82636;BMP280;72317;37.280;-121.948;2024-02-26T21:18:24;96913.13;;;17.29
82636;BMP280;72317;37.280;-121.948;2024-02-26T21:23:24;96888.28;;;17.25
82636;BMP280;72317;37.280;-121.948;2024-02-26T21:28:25;96975.94;;;16.77
82636;BMP280;72317;37.280;-121.948;2024-02-26T21:33:26;97008.75;;;17.37
82636;BMP280;72317;37.280;-121.948;2024-02-26T21:38:27;96980.56;;;17.05
82636;BMP280;72317;37.280;-121.948;2024-02-26T21:43:28;96908.28;;;17.11
82636;BMP280;72317;37.280;-121.948;2024-02-26T21:48:29;97049.16;;;16.90
82636;BMP280;72317;37.280;-121.948;2024-02-26T21:53:30;96925.53;;;16.96
82636;BMP280;72317;37.280;-121.948;2024-02-26T21:58:30;96959.50;;;16.58
82636;BMP280;72317;37.280;-121.948;2024-02-26T22:03:31;96922.38;;;16.70
82636;BMP280;72317;37.280;-121.948;2024-02-26T22:08:32;96911.81;;;16.83
82636;BMP280;72317;37.280;-121.948;2024-02-26T22:13:33;96902.50;;;17.37
82636;BMP280;72317;37.280;-121.948;2024-02-26T22:18:33;96914.75;;;16.80
82636;BMP280;72317;37.280;-121.948;2024-02-26T22:23:34;96866.53;;;17.47
82636;BMP280;72317;37.280;-121.948;2024-02-26T22:28:36;97019.31;;;17.35
82636;BMP280;72317;37.280;-121.948;2024-02-26T22:33:36;96943.19;;;17.67
82636;BMP280;72317;37.280;-121.948;2024-02-26T22:38:37;96835.13;;;16.86
82636;BMP280;72317;37.280;-121.948;2024-02-26T22:43:38;96876.63;;;16.94
82636;BMP280;72317;37.280;-121.948;2024-02-26T22:48:39;96957.03;;;17.52
82636;BMP280;72317;37.280;-121.948;2024-02-26T22:53:40;97205.72;;;17.78
82636;BMP280;72317;37.280;-121.948;2024-02-26T22:58:40;97200.50;;;17.85
82636;BMP280;72317;37.280;-121.948;2024-02-26T23:03:41;97185.75;;;17.86
82636;BMP280;72317;37.280;-121.948;2024-02-26T23:08:42;96937.72;;;17.25
82636;BMP280;72317;37.280;-121.948;2024-02-26T23:13:43;96874.19;;;16.80
82636;BMP280;72317;37.280;-121.948;2024-02-26T23:18:43;96849.06;;;17.01
82636;BMP280;72317;37.280;-121.948;2024-02-26T23:23:44;96805.53;;;17.11
82636;BMP280;72317;37.280;-121.948;2024-02-26T23:28:45;96826.09;;;16.78
82636;BMP280;72317;37.280;-121.948;2024-02-26T23:33:46;96781.22;;;17.05
82636;BMP280;72317;37.280;-121.948;2024-02-26T23:38:46;96751.72;;;17.07
82636;BMP280;72317;37.280;-121.948;2024-02-26T23:43:47;96854.22;;;17.05
82636;BMP280;72317;37.280;-121.948;2024-02-26T23:48:48;96796.72;;;16.99
82636;BMP280;72317;37.280;-121.948;2024-02-26T23:53:49;96751.84;;;16.79
82636;BMP280;72317;37.280;-121.948;2024-02-26T23:58:50;96722.84;;;16.85
